createdAt,value
2017-09-15T00:00:17.762Z,10.3
2017-09-15T00:01:23.157Z,10.3
2017-09-15T00:02:29.833Z,10.3
2017-09-15T00:03:39.108Z,10.3
2017-09-15T00:04:47.158Z,10.3
2017-09-15T00:05:56.681Z,10.3
2017-09-15T00:07:04.115Z,10.3
2017-09-15T00:08:14.638Z,10.2
2017-09-15T00:09:26.159Z,10.2
2017-09-15T00:10:36.607Z,10.3
2017-09-15T00:11:41.197Z,10.2
2017-09-15T00:12:46.427Z,10.3
2017-09-15T00:13:53.162Z,10.2
2017-09-15T00:14:58.220Z,10.3
2017-09-15T00:16:04.617Z,10.3
2017-09-15T00:17:11.677Z,10.3
2017-09-15T00:18:23.117Z,10.3
2017-09-15T00:19:31.162Z,10.3
2017-09-15T00:20:39.107Z,10.3
2017-09-15T00:21:44.282Z,10.3
2017-09-15T00:22:51.742Z,10.3
2017-09-15T00:24:00.608Z,10.3
2017-09-15T00:25:08.261Z,10.3
2017-09-15T00:26:16.336Z,10.3
2017-09-15T00:27:24.681Z,10.3
2017-09-15T00:28:29.876Z,10.3
2017-09-15T00:29:37.113Z,10.3
2017-09-15T00:30:42.234Z,10.4
2017-09-15T00:31:48.607Z,10.3
2017-09-15T00:32:54.108Z,10.3
2017-09-15T00:34:02.607Z,10.4
2017-09-15T00:35:09.697Z,10.3
2017-09-15T00:36:17.191Z,10.3
2017-09-15T00:37:24.608Z,10.3
2017-09-15T00:38:29.613Z,10.3
2017-09-15T00:39:35.166Z,10.2
2017-09-15T00:40:41.640Z,10.3
2017-09-15T00:41:45.499Z,10.3
2017-09-15T00:42:52.107Z,10.3
2017-09-15T00:43:58.036Z,10.3
2017-09-15T00:45:03.654Z,10.3
2017-09-15T00:46:11.605Z,10.2
2017-09-15T00:47:15.781Z,10.3
2017-09-15T00:48:22.280Z,10.2
2017-09-15T00:49:30.812Z,10.2
2017-09-15T00:50:36.743Z,10.2
2017-09-15T00:51:45.732Z,10.3
2017-09-15T00:52:51.159Z,10.3
2017-09-15T00:53:56.168Z,10.3
2017-09-15T00:55:02.242Z,10.2
2017-09-15T00:56:04.604Z,10.3
2017-09-15T00:57:09.115Z,10.3
2017-09-15T00:58:15.078Z,10.3
2017-09-15T00:59:19.015Z,10.3
2017-09-15T01:00:20.934Z,10.2
2017-09-15T01:01:22.590Z,10.2
2017-09-15T01:02:25.408Z,10.2
2017-09-15T01:03:29.192Z,10.3
2017-09-15T01:04:33.602Z,10.3
2017-09-15T01:05:35.755Z,10.2
2017-09-15T01:06:37.304Z,10.3
2017-09-15T01:07:39.818Z,10.2
2017-09-15T01:08:42.698Z,10.3
2017-09-15T01:09:46.111Z,10.3
2017-09-15T01:10:47.616Z,10.2
2017-09-15T01:11:51.115Z,10.3
2017-09-15T01:12:53.141Z,10.3
2017-09-15T01:13:54.989Z,10.2
2017-09-15T01:14:57.196Z,10.3
2017-09-15T01:15:59.810Z,10.2
2017-09-15T01:17:02.901Z,10.2
2017-09-15T01:18:06.249Z,10.3
2017-09-15T01:19:09.224Z,10.2
2017-09-15T01:20:13.216Z,10.2
2017-09-15T01:21:17.275Z,10.2
2017-09-15T01:22:21.611Z,10.3
2017-09-15T01:23:25.472Z,10.3
2017-09-15T01:24:28.768Z,10.2
2017-09-15T01:25:30.421Z,10.1
2017-09-15T01:26:34.210Z,10.3
2017-09-15T01:27:37.438Z,10.3
2017-09-15T01:28:39.611Z,10.2
2017-09-15T01:29:41.434Z,10.3
2017-09-15T01:30:43.778Z,10.3
2017-09-15T01:31:46.790Z,10.3
2017-09-15T01:32:49.832Z,10.3
2017-09-15T01:33:51.946Z,10.2
2017-09-15T01:34:53.602Z,10.2
2017-09-15T01:35:55.252Z,10.3
2017-09-15T01:36:58.292Z,10.2
2017-09-15T01:38:01.488Z,10.2
2017-09-15T01:39:03.928Z,10.3
2017-09-15T01:40:07.184Z,10.3
2017-09-15T01:41:10.781Z,10.3
2017-09-15T01:42:15.171Z,10.3
2017-09-15T01:43:16.825Z,10.3
2017-09-15T01:44:19.778Z,10.3
2017-09-15T01:45:23.111Z,10.2
2017-09-15T01:46:26.012Z,10.2
2017-09-15T01:47:29.460Z,10.2
2017-09-15T01:48:32.607Z,10.3
2017-09-15T01:49:35.774Z,10.2
2017-09-15T01:50:38.246Z,10.2
2017-09-15T01:51:39.909Z,10.2
2017-09-15T01:52:42.256Z,10.2
2017-09-15T01:53:45.616Z,10.3
2017-09-15T01:54:47.261Z,10.2
2017-09-15T01:55:49.483Z,10.2
2017-09-15T02:01:49.821Z,10.1
2017-09-15T02:02:52.414Z,10.1
2017-09-15T02:03:54.991Z,10.1
2017-09-15T02:04:57.742Z,10.1
2017-09-15T02:06:00.813Z,10.1
2017-09-15T02:07:03.902Z,10.1
2017-09-15T02:08:07.275Z,10.2
2017-09-15T02:09:10.383Z,10.1
2017-09-15T02:10:14.285Z,10.1
2017-09-15T02:11:18.400Z,10.1
2017-09-15T02:12:22.429Z,10.0
2017-09-15T02:13:25.856Z,10.1
2017-09-15T02:14:28.998Z,10.0
2017-09-15T02:15:32.137Z,10.0
2017-09-15T02:16:35.820Z,10.0
2017-09-15T02:17:37.469Z,10.1
2017-09-15T02:18:39.581Z,10.0
2017-09-15T02:19:44.319Z,9.9
2017-09-15T02:20:47.362Z,9.8
2017-09-15T02:21:51.279Z,9.6
2017-09-15T02:22:53.581Z,9.6
2017-09-15T02:23:56.480Z,9.7
2017-09-15T02:24:59.893Z,9.8
2017-09-15T02:26:02.943Z,9.6
2017-09-15T02:27:06.199Z,9.7
2017-09-15T02:28:10.433Z,9.7
2017-09-15T02:29:15.731Z,9.8
2017-09-15T02:30:18.163Z,9.8
2017-09-15T02:31:21.232Z,9.8
2017-09-15T02:32:24.458Z,9.9
2017-09-15T02:33:29.732Z,9.9
2017-09-15T02:34:32.810Z,9.8
2017-09-15T02:35:36.767Z,9.9
2017-09-15T02:36:39.803Z,10.0
2017-09-15T02:37:42.122Z,10.0
2017-09-15T02:38:45.848Z,9.9
2017-09-15T02:39:49.857Z,10.0
2017-09-15T02:40:53.232Z,10.0
2017-09-15T02:41:56.931Z,9.8
2017-09-15T02:43:01.787Z,9.9
2017-09-15T02:44:04.314Z,9.9
2017-09-15T02:45:06.723Z,9.9
2017-09-15T02:46:10.929Z,9.9
2017-09-15T02:47:15.126Z,9.9
2017-09-15T02:48:17.531Z,9.8
2017-09-15T02:49:19.884Z,9.8
2017-09-15T02:50:23.962Z,9.8
2017-09-15T02:51:27.601Z,9.7
2017-09-15T02:52:31.338Z,9.6
2017-09-15T02:53:34.338Z,9.6
2017-09-15T02:54:37.231Z,9.7
2017-09-15T02:55:40.810Z,9.8
2017-09-15T02:56:44.733Z,9.7
2017-09-15T02:57:46.999Z,9.8
2017-09-15T02:58:50.350Z,9.7
2017-09-15T02:59:54.789Z,9.8
2017-09-15T03:00:57.908Z,9.6
2017-09-15T03:02:00.387Z,9.7
2017-09-15T03:03:03.360Z,9.7
2017-09-15T03:04:05.754Z,9.8
2017-09-15T03:05:11.732Z,9.9
2017-09-15T03:06:14.418Z,9.8
2017-09-15T03:07:18.469Z,9.9
2017-09-15T03:08:20.110Z,9.9
2017-09-15T03:09:23.326Z,9.8
2017-09-15T03:10:26.737Z,9.7
2017-09-15T03:11:27.837Z,9.8
2017-09-15T03:12:32.459Z,9.9
2017-09-15T03:13:35.331Z,9.8
2017-09-15T03:14:37.735Z,9.8
2017-09-15T03:15:40.788Z,9.8
2017-09-15T03:16:44.920Z,9.8
2017-09-15T03:17:46.570Z,9.8
2017-09-15T03:18:49.823Z,9.7
2017-09-15T03:19:52.807Z,9.7
2017-09-15T03:20:55.969Z,9.7
2017-09-15T03:21:59.104Z,9.7
2017-09-15T03:23:02.307Z,9.8
2017-09-15T03:24:05.738Z,9.9
2017-09-15T03:25:08.957Z,9.8
2017-09-15T03:26:13.073Z,9.8
2017-09-15T03:27:16.031Z,9.9
2017-09-15T03:28:20.843Z,9.8
2017-09-15T03:29:25.039Z,9.9
2017-09-15T03:30:27.342Z,9.9
2017-09-15T03:31:29.572Z,9.8
2017-09-15T03:32:31.900Z,9.8
2017-09-15T03:33:38.734Z,9.9
2017-09-15T03:34:40.035Z,9.7
2017-09-15T03:35:44.892Z,9.8
2017-09-15T03:36:47.247Z,9.8
2017-09-15T03:37:48.898Z,9.8
2017-09-15T03:38:51.291Z,9.6
2017-09-15T03:39:55.235Z,9.6
2017-09-15T03:40:55.998Z,9.6
2017-09-15T03:41:57.649Z,9.6
2017-09-15T03:42:59.804Z,9.6
2017-09-15T03:44:03.931Z,9.6
2017-09-15T03:45:08.290Z,9.4
2017-09-15T03:46:12.161Z,9.2
2017-09-15T03:47:14.726Z,9.3
2017-09-15T03:48:17.237Z,9.2
2017-09-15T03:49:20.837Z,9.2
2017-09-15T03:50:23.306Z,9.2
2017-09-15T03:51:26.666Z,9.2
2017-09-15T03:52:29.262Z,9.4
2017-09-15T03:53:32.012Z,9.4
2017-09-15T03:54:35.352Z,9.5
2017-09-15T03:55:38.453Z,9.6
2017-09-15T03:56:42.436Z,9.6
2017-09-15T03:57:46.516Z,9.6
2017-09-15T03:58:49.673Z,9.6
2017-09-15T03:59:52.739Z,9.5
2017-09-15T04:00:57.738Z,9.4
2017-09-15T04:02:00.742Z,9.3
2017-09-15T04:03:04.125Z,9.3
2017-09-15T04:04:06.808Z,9.3
2017-09-15T04:05:10.990Z,9.4
2017-09-15T04:06:13.856Z,9.4
2017-09-15T04:07:16.114Z,9.5
2017-09-15T04:08:18.555Z,9.5
2017-09-15T04:09:22.447Z,9.5
2017-09-15T04:10:25.906Z,9.6
2017-09-15T04:11:28.856Z,9.6
2017-09-15T04:12:31.343Z,9.6
2017-09-15T04:13:33.953Z,9.6
2017-09-15T04:14:37.561Z,9.6
2017-09-15T04:15:41.025Z,9.6
2017-09-15T04:16:44.012Z,9.6
2017-09-15T04:17:46.398Z,9.6
2017-09-15T04:18:48.807Z,9.6
2017-09-15T04:19:54.884Z,9.7
2017-09-15T04:20:58.802Z,9.6
2017-09-15T04:22:02.008Z,9.6
2017-09-15T04:23:05.648Z,9.6
2017-09-15T04:24:09.057Z,9.7
2017-09-15T04:25:11.654Z,9.6
2017-09-15T04:26:15.741Z,9.7
2017-09-15T04:27:16.964Z,9.6
2017-09-15T04:28:18.614Z,9.6
2017-09-15T04:29:23.305Z,9.7
2017-09-15T04:30:27.242Z,9.6
2017-09-15T04:31:28.595Z,9.7
2017-09-15T04:32:33.647Z,9.6
2017-09-15T04:33:36.583Z,9.6
2017-09-15T04:34:43.353Z,9.6
2017-09-15T04:35:49.355Z,9.5
2017-09-15T04:36:52.560Z,9.5
2017-09-15T04:37:54.970Z,9.3
2017-09-15T04:38:59.847Z,9.3
2017-09-15T04:40:03.743Z,9.3
2017-09-15T04:41:08.539Z,9.3
2017-09-15T04:42:14.239Z,9.4
2017-09-15T04:43:15.524Z,9.4
2017-09-15T04:44:19.240Z,9.5
2017-09-15T04:45:22.787Z,9.5
2017-09-15T04:46:25.217Z,9.5
2017-09-15T04:47:26.871Z,9.6
2017-09-15T04:48:30.299Z,9.6
2017-09-15T04:49:33.463Z,9.6
2017-09-15T04:50:37.465Z,9.5
2017-09-15T04:51:39.117Z,9.6
2017-09-15T04:52:41.705Z,9.5
2017-09-15T04:53:43.860Z,9.6
2017-09-15T04:54:47.941Z,9.6
2017-09-15T04:55:51.576Z,9.6
2017-09-15T04:56:53.815Z,9.6
2017-09-15T04:57:57.767Z,9.6
2017-09-15T04:59:01.244Z,9.6
2017-09-15T05:00:04.799Z,9.6
2017-09-15T05:01:08.916Z,9.6
2017-09-15T05:02:12.012Z,9.5
2017-09-15T05:03:13.683Z,9.3
2017-09-15T05:04:20.240Z,9.2
2017-09-15T05:05:25.380Z,9.2
2017-09-15T05:06:28.003Z,9.1
2017-09-15T05:07:32.288Z,9.2
2017-09-15T05:08:35.410Z,9.2
2017-09-15T05:09:37.077Z,9.2
2017-09-15T05:10:39.499Z,9.3
2017-09-15T05:11:42.608Z,9.4
2017-09-15T05:12:44.853Z,9.5
2017-09-15T05:13:49.863Z,9.4
2017-09-15T05:14:54.741Z,9.4
2017-09-15T05:15:56.860Z,9.4
2017-09-15T05:16:59.893Z,9.5
2017-09-15T05:18:02.245Z,9.5
2017-09-15T05:19:05.203Z,9.5
2017-09-15T05:20:08.334Z,9.5
2017-09-15T05:21:10.562Z,9.5
2017-09-15T05:22:13.365Z,9.6
2017-09-15T05:23:16.544Z,9.6
2017-09-15T05:24:19.561Z,9.6
2017-09-15T05:25:23.246Z,9.6
2017-09-15T05:26:25.321Z,9.6
2017-09-15T05:27:29.533Z,9.6
2017-09-15T05:28:32.675Z,9.6
2017-09-15T05:29:34.965Z,9.6
2017-09-15T05:30:37.560Z,9.6
2017-09-15T05:31:41.567Z,9.6
2017-09-15T05:32:46.245Z,9.7
2017-09-15T05:33:49.749Z,9.7
2017-09-15T05:34:52.548Z,9.6
2017-09-15T05:35:55.908Z,9.7
2017-09-15T05:37:01.382Z,9.6
2017-09-15T05:38:09.251Z,9.7
2017-09-15T05:39:11.743Z,9.7
2017-09-15T05:40:15.778Z,9.6
2017-09-15T05:41:18.181Z,9.6
2017-09-15T05:42:19.828Z,9.7
2017-09-15T05:43:24.812Z,9.7
2017-09-15T05:44:27.004Z,9.7
2017-09-15T05:45:30.542Z,9.6
2017-09-15T05:46:32.580Z,9.7
2017-09-15T05:47:35.824Z,9.7
2017-09-15T05:48:39.852Z,9.7
2017-09-15T05:49:42.096Z,9.7
2017-09-15T05:50:46.570Z,9.7
2017-09-15T05:51:48.226Z,9.8
2017-09-15T05:52:50.601Z,9.8
2017-09-15T05:53:55.352Z,9.8
2017-09-15T05:54:59.806Z,9.8
2017-09-15T06:01:23.236Z,9.9
2017-09-15T06:02:25.581Z,9.9
2017-09-15T06:03:28.775Z,9.9
2017-09-15T06:04:30.462Z,9.9
2017-09-15T06:05:33.437Z,10.0
2017-09-15T06:06:37.386Z,10.0
2017-09-15T06:07:40.975Z,10.0
2017-09-15T06:08:44.017Z,10.0
2017-09-15T06:09:48.925Z,10.0
2017-09-15T06:10:51.776Z,9.9
2017-09-15T06:11:55.882Z,9.9
2017-09-15T06:12:57.547Z,10.0
2017-09-15T06:14:01.404Z,9.9
2017-09-15T06:15:04.659Z,10.0
2017-09-15T06:16:06.924Z,9.9
2017-09-15T06:17:10.333Z,9.9
2017-09-15T06:18:13.874Z,10.0
2017-09-15T06:19:15.532Z,10.0
2017-09-15T06:20:19.555Z,9.9
2017-09-15T06:21:23.725Z,10.0
2017-09-15T06:22:26.144Z,9.9
2017-09-15T06:23:27.831Z,9.9
2017-09-15T06:24:31.939Z,10.0
2017-09-15T06:25:37.508Z,10.0
2017-09-15T06:26:41.514Z,10.0
2017-09-15T06:27:45.026Z,10.0
2017-09-15T06:28:48.013Z,10.0
2017-09-15T06:29:50.849Z,10.0
2017-09-15T06:30:55.404Z,10.1
2017-09-15T06:31:57.869Z,10.0
2017-09-15T06:32:59.534Z,10.0
2017-09-15T06:34:02.782Z,10.2
2017-09-15T06:35:04.436Z,10.2
2017-09-15T06:36:08.272Z,10.3
2017-09-15T06:37:12.335Z,10.1
2017-09-15T06:38:14.005Z,10.3
2017-09-15T06:39:18.729Z,10.2
2017-09-15T06:40:20.379Z,10.2
2017-09-15T06:41:22.971Z,10.3
2017-09-15T06:42:26.228Z,10.3
2017-09-15T06:43:28.826Z,10.3
2017-09-15T06:44:35.227Z,10.4
2017-09-15T06:45:40.871Z,10.3
2017-09-15T06:46:44.886Z,10.5
2017-09-15T06:47:49.422Z,10.5
2017-09-15T06:48:52.442Z,10.5
2017-09-15T06:49:57.450Z,10.6
2017-09-15T06:51:01.027Z,10.6
2017-09-15T06:52:04.095Z,10.6
2017-09-15T06:53:07.011Z,10.6
2017-09-15T06:54:10.801Z,10.6
2017-09-15T06:55:13.343Z,10.6
2017-09-15T06:56:18.228Z,10.5
2017-09-15T06:57:23.736Z,10.6
2017-09-15T06:58:26.126Z,10.7
2017-09-15T06:59:27.809Z,10.7
2017-09-15T07:00:30.684Z,10.7
2017-09-15T07:01:33.867Z,10.7
2017-09-15T07:02:36.036Z,10.7
2017-09-15T07:03:38.790Z,10.6
2017-09-15T07:04:42.032Z,10.6
2017-09-15T07:05:47.846Z,10.6
2017-09-15T07:06:52.050Z,10.5
2017-09-15T07:07:54.244Z,10.6
2017-09-15T07:08:56.803Z,10.5
2017-09-15T07:10:01.450Z,10.5
2017-09-15T07:11:03.802Z,10.5
2017-09-15T07:12:06.889Z,10.5
2017-09-15T07:13:10.950Z,10.5
2017-09-15T07:14:14.232Z,10.5
2017-09-15T07:15:15.915Z,10.6
2017-09-15T07:16:19.284Z,10.6
2017-09-15T07:17:21.516Z,10.5
2017-09-15T07:18:24.271Z,10.5
2017-09-15T07:19:28.028Z,10.5
2017-09-15T07:20:31.333Z,10.5
2017-09-15T07:21:33.645Z,10.3
2017-09-15T07:22:35.952Z,10.5
2017-09-15T07:23:40.175Z,10.4
2017-09-15T07:24:43.948Z,10.3
2017-09-15T07:25:46.598Z,10.4
2017-09-15T07:26:49.689Z,10.4
2017-09-15T07:27:53.467Z,10.3
2017-09-15T07:28:55.133Z,10.4
2017-09-15T07:29:58.853Z,10.3
2017-09-15T07:31:02.887Z,10.4
2017-09-15T07:32:07.988Z,10.3
2017-09-15T07:33:11.065Z,10.3
2017-09-15T07:34:15.796Z,10.4
2017-09-15T07:35:18.114Z,10.4
2017-09-15T07:36:22.735Z,10.4
2017-09-15T07:37:24.281Z,10.5
2017-09-15T07:38:25.934Z,10.5
2017-09-15T07:39:29.444Z,10.5
2017-09-15T07:40:31.832Z,10.5
2017-09-15T07:41:36.602Z,10.5
2017-09-15T07:42:39.771Z,10.4
2017-09-15T07:43:41.425Z,10.5
2017-09-15T07:44:46.354Z,10.6
2017-09-15T07:45:49.537Z,10.5
2017-09-15T07:46:53.733Z,10.6
2017-09-15T07:47:54.916Z,10.5
2017-09-15T07:48:58.268Z,10.6
2017-09-15T07:50:00.023Z,10.6
2017-09-15T07:51:01.685Z,10.6
2017-09-15T07:52:04.741Z,10.7
2017-09-15T07:53:06.322Z,10.6
2017-09-15T07:54:11.819Z,10.6
2017-09-15T07:55:13.471Z,10.7
2017-09-15T07:56:15.129Z,10.6
2017-09-15T07:57:18.795Z,10.6
2017-09-15T07:58:21.368Z,10.7
2017-09-15T07:59:23.736Z,10.6
2017-09-15T08:00:26.585Z,10.6
2017-09-15T08:01:29.676Z,10.7
2017-09-15T08:02:32.739Z,10.7
2017-09-15T08:03:35.743Z,10.8
2017-09-15T08:04:39.058Z,10.9
2017-09-15T08:05:41.398Z,11.0
2017-09-15T08:06:44.419Z,11.2
2017-09-15T08:07:48.850Z,11.3
2017-09-15T08:08:51.531Z,11.5
2017-09-15T08:09:55.797Z,11.6
2017-09-15T08:10:58.318Z,11.7
2017-09-15T08:12:01.814Z,11.6
2017-09-15T08:13:04.390Z,11.6
2017-09-15T08:14:07.456Z,11.5
2017-09-15T08:15:09.124Z,11.5
2017-09-15T08:16:13.775Z,11.5
2017-09-15T08:17:14.604Z,11.7
2017-09-15T08:18:19.316Z,11.8
2017-09-15T08:19:20.996Z,12.1
2017-09-15T08:20:23.490Z,12.3
2017-09-15T08:21:25.864Z,12.6
2017-09-15T08:22:28.118Z,13.1
2017-09-15T08:23:31.531Z,13.6
2017-09-15T08:24:34.063Z,14.3
2017-09-15T08:25:40.625Z,14.7
2017-09-15T08:26:44.240Z,14.8
2017-09-15T08:27:46.811Z,14.6
2017-09-15T08:28:49.937Z,14.8
2017-09-15T08:29:53.234Z,14.8
2017-09-15T08:30:57.483Z,14.7
2017-09-15T08:32:01.307Z,14.7
2017-09-15T08:33:02.975Z,14.7
2017-09-15T08:34:05.918Z,14.5
2017-09-15T08:35:09.830Z,14.7
2017-09-15T08:36:14.397Z,15.1
2017-09-15T08:37:18.790Z,15.3
2017-09-15T08:38:21.329Z,15.1
2017-09-15T08:39:24.356Z,14.9
2017-09-15T08:40:26.926Z,14.9
2017-09-15T08:41:31.007Z,15.1
2017-09-15T08:42:32.689Z,15.1
2017-09-15T08:43:34.990Z,15.1
2017-09-15T08:44:38.383Z,15.5
2017-09-15T08:45:43.245Z,15.8
2017-09-15T08:46:44.913Z,15.8
2017-09-15T08:47:47.389Z,15.7
2017-09-15T08:48:50.806Z,15.4
2017-09-15T08:49:55.310Z,15.1
2017-09-15T08:50:57.589Z,14.9
2017-09-15T08:52:00.816Z,14.8
2017-09-15T08:53:03.882Z,14.8
2017-09-15T08:54:07.838Z,14.8
2017-09-15T08:55:09.518Z,14.8
2017-09-15T08:56:12.954Z,15.1
2017-09-15T08:57:15.539Z,15.2
2017-09-15T08:58:19.394Z,15.0
2017-09-15T08:59:24.491Z,14.8
2017-09-15T09:00:27.945Z,14.6
2017-09-15T09:01:30.379Z,14.4
2017-09-15T09:02:32.950Z,14.4
2017-09-15T09:03:35.582Z,14.3
2017-09-15T09:04:37.819Z,14.2
2017-09-15T09:05:41.907Z,14.1
2017-09-15T09:06:43.576Z,14.0
2017-09-15T09:07:47.581Z,13.9
2017-09-15T09:08:50.731Z,13.7
2017-09-15T09:09:53.251Z,13.6
2017-09-15T09:10:55.897Z,13.7
2017-09-15T09:11:59.566Z,13.6
2017-09-15T09:13:02.812Z,13.7
2017-09-15T09:14:07.439Z,14.2
2017-09-15T09:15:09.983Z,14.5
2017-09-15T09:16:12.509Z,14.8
2017-09-15T09:17:15.901Z,14.8
2017-09-15T09:18:20.022Z,15.0
2017-09-15T09:19:24.323Z,14.9
2017-09-15T09:20:26.584Z,15.0
2017-09-15T09:21:31.376Z,14.8
2017-09-15T09:22:34.824Z,14.7
2017-09-15T09:23:39.458Z,14.7
2017-09-15T09:24:46.251Z,14.6
2017-09-15T09:25:49.250Z,14.5
2017-09-15T09:26:51.577Z,14.4
2017-09-15T09:27:53.918Z,14.4
2017-09-15T09:28:56.252Z,14.4
2017-09-15T09:29:58.864Z,14.4
2017-09-15T09:31:02.375Z,14.4
2017-09-15T09:32:06.444Z,14.4
2017-09-15T09:33:08.756Z,14.2
2017-09-15T09:34:10.165Z,14.2
2017-09-15T09:35:15.445Z,14.0
2017-09-15T09:36:18.762Z,14.0
2017-09-15T09:37:21.753Z,13.9
2017-09-15T09:38:24.214Z,13.8
2017-09-15T09:39:26.643Z,13.7
2017-09-15T09:40:29.097Z,14.1
2017-09-15T09:41:31.659Z,14.4
2017-09-15T09:42:35.001Z,14.5
2017-09-15T09:43:37.351Z,14.7
2017-09-15T09:44:40.256Z,14.7
2017-09-15T09:45:44.269Z,14.8
2017-09-15T09:46:47.755Z,14.9
2017-09-15T09:47:49.330Z,14.9
2017-09-15T09:48:52.396Z,15.1
2017-09-15T09:49:54.837Z,15.4
2017-09-15T09:50:57.013Z,15.2
2017-09-15T09:52:00.309Z,14.7
2017-09-15T09:53:03.145Z,14.7
2017-09-15T09:54:06.217Z,14.7
2017-09-15T09:55:10.260Z,14.9
2017-09-15T10:01:06.815Z,15.2
2017-09-15T10:02:10.175Z,15.2
2017-09-15T10:03:13.277Z,15.3
2017-09-15T10:04:15.838Z,15.2
2017-09-15T10:05:18.960Z,15.1
2017-09-15T10:06:22.505Z,14.9
2017-09-15T10:07:25.924Z,14.7
2017-09-15T10:08:29.104Z,14.6
2017-09-15T10:09:42.715Z,14.6
2017-09-15T10:10:46.523Z,14.3
2017-09-15T10:11:49.771Z,14.3
2017-09-15T10:12:53.582Z,14.3
2017-09-15T10:13:58.360Z,14.0
2017-09-15T10:15:02.715Z,13.9
2017-09-15T10:16:05.215Z,13.8
2017-09-15T10:17:06.874Z,13.8
2017-09-15T10:18:11.831Z,13.7
2017-09-15T10:19:14.717Z,13.6
2017-09-15T10:20:18.890Z,13.6
2017-09-15T10:21:22.776Z,13.6
2017-09-15T10:22:24.362Z,13.7
2017-09-15T10:23:26.567Z,13.7
2017-09-15T10:24:28.234Z,13.9
2017-09-15T10:25:30.635Z,13.9
2017-09-15T10:26:32.315Z,14.0
2017-09-15T10:27:36.245Z,14.1
2017-09-15T10:28:38.752Z,14.0
2017-09-15T10:29:42.021Z,14.0
2017-09-15T10:30:46.610Z,14.2
2017-09-15T10:31:49.578Z,14.2
2017-09-15T10:32:53.657Z,14.1
2017-09-15T10:33:55.329Z,14.2
2017-09-15T10:34:59.343Z,14.1
2017-09-15T10:36:02.464Z,14.2
2017-09-15T10:37:05.109Z,14.1
2017-09-15T10:38:08.276Z,14.2
2017-09-15T10:39:08.962Z,14.2
2017-09-15T10:40:12.273Z,14.2
2017-09-15T10:41:15.940Z,14.3
2017-09-15T10:42:19.346Z,14.3
2017-09-15T10:43:21.976Z,14.2
2017-09-15T10:44:27.280Z,14.2
2017-09-15T10:45:28.086Z,14.3
2017-09-15T10:46:32.175Z,14.2
2017-09-15T10:47:33.840Z,14.2
2017-09-15T10:48:38.831Z,14.3
2017-09-15T10:49:40.487Z,14.3
2017-09-15T10:50:43.740Z,14.2
2017-09-15T10:51:46.947Z,14.3
2017-09-15T10:52:51.454Z,14.4
2017-09-15T10:53:53.847Z,14.4
2017-09-15T10:54:58.010Z,14.4
2017-09-15T10:55:59.670Z,14.4
2017-09-15T10:57:03.579Z,14.6
2017-09-15T10:58:06.505Z,14.6
2017-09-15T10:59:11.423Z,14.5
2017-09-15T11:00:13.087Z,14.3
2017-09-15T11:01:16.917Z,14.4
2017-09-15T11:02:19.184Z,14.5
2017-09-15T11:03:24.993Z,14.4
2017-09-15T11:04:29.614Z,14.4
2017-09-15T11:05:32.577Z,14.4
2017-09-15T11:06:34.835Z,14.5
2017-09-15T11:07:39.495Z,14.7
2017-09-15T11:08:44.878Z,14.7
2017-09-15T11:09:50.366Z,15.0
2017-09-15T11:10:54.066Z,15.1
2017-09-15T11:11:58.781Z,15.0
2017-09-15T11:12:59.741Z,15.2
2017-09-15T11:14:02.949Z,15.2
2017-09-15T11:15:05.920Z,15.3
2017-09-15T11:16:10.005Z,15.4
2017-09-15T11:17:12.393Z,15.2
2017-09-15T11:18:14.567Z,15.2
2017-09-15T11:19:17.842Z,15.2
2017-09-15T11:20:20.048Z,15.2
2017-09-15T11:21:23.141Z,15.2
2017-09-15T11:22:25.506Z,15.0
2017-09-15T11:23:27.864Z,15.0
2017-09-15T11:24:32.356Z,15.1
2017-09-15T11:25:41.286Z,15.1
2017-09-15T11:26:42.833Z,15.2
2017-09-15T11:27:45.981Z,15.2
2017-09-15T11:28:50.249Z,15.4
2017-09-15T11:29:53.360Z,15.5
2017-09-15T11:30:55.786Z,15.4
2017-09-15T11:32:00.292Z,15.2
2017-09-15T11:33:01.919Z,15.4
2017-09-15T11:34:04.408Z,15.4
2017-09-15T11:35:07.880Z,15.4
2017-09-15T11:36:11.967Z,15.5
2017-09-15T11:37:15.557Z,15.6
2017-09-15T11:38:19.579Z,15.5
2017-09-15T11:39:21.763Z,15.6
2017-09-15T11:40:26.288Z,15.5
2017-09-15T11:41:27.871Z,15.4
2017-09-15T11:42:31.530Z,15.4
2017-09-15T11:43:34.343Z,15.4
2017-09-15T11:44:36.854Z,15.4
2017-09-15T11:45:39.788Z,15.2
2017-09-15T11:46:40.861Z,15.3
2017-09-15T11:47:43.940Z,15.3
2017-09-15T11:48:47.290Z,15.3
2017-09-15T11:49:50.478Z,15.4
2017-09-15T11:50:52.149Z,15.5
2017-09-15T11:51:54.396Z,15.4
2017-09-15T11:52:57.834Z,15.4
2017-09-15T11:54:00.078Z,15.6
2017-09-15T11:55:02.163Z,15.5
2017-09-15T11:56:05.292Z,15.5
2017-09-15T11:57:07.112Z,15.4
2017-09-15T11:58:11.315Z,15.4
2017-09-15T11:59:13.861Z,15.3
2017-09-15T12:00:17.851Z,15.1
2017-09-15T12:01:25.388Z,15.2
2017-09-15T12:02:27.057Z,15.2
2017-09-15T12:03:28.762Z,15.4
2017-09-15T12:04:30.436Z,15.4
2017-09-15T12:05:32.597Z,15.8
2017-09-15T12:06:34.298Z,15.8
2017-09-15T12:07:37.954Z,16.0
2017-09-15T12:08:42.078Z,16.1
2017-09-15T12:09:44.957Z,16.1
2017-09-15T12:10:47.157Z,16.1
2017-09-15T12:11:49.468Z,16.3
2017-09-15T12:12:51.852Z,16.2
2017-09-15T12:13:55.058Z,16.3
2017-09-15T12:14:56.807Z,16.2
2017-09-15T12:15:59.393Z,16.1
2017-09-15T12:17:02.017Z,16.1
2017-09-15T12:18:15.176Z,16.3
2017-09-15T12:19:19.907Z,16.3
2017-09-15T12:20:21.635Z,16.4
2017-09-15T12:21:24.873Z,16.2
2017-09-15T12:22:27.779Z,16.2
2017-09-15T12:23:30.078Z,16.2
2017-09-15T12:24:31.743Z,16.2
2017-09-15T12:25:33.390Z,16.2
2017-09-15T12:26:36.046Z,16.0
2017-09-15T12:27:39.167Z,16.1
2017-09-15T12:28:40.840Z,16.2
2017-09-15T12:29:43.299Z,16.2
2017-09-15T12:30:45.083Z,16.3
2017-09-15T12:31:47.589Z,16.3
2017-09-15T12:32:50.799Z,16.3
2017-09-15T12:33:53.362Z,16.2
2017-09-15T12:34:57.378Z,16.3
2017-09-15T12:36:01.517Z,16.3
2017-09-15T12:37:03.781Z,16.5
2017-09-15T12:38:09.886Z,16.2
2017-09-15T12:39:12.078Z,16.3
2017-09-15T12:40:14.572Z,16.1
2017-09-15T12:41:17.952Z,16.1
2017-09-15T12:42:19.629Z,15.9
2017-09-15T12:43:21.656Z,15.9
2017-09-15T12:44:23.889Z,15.7
2017-09-15T12:45:26.083Z,15.5
2017-09-15T12:46:28.987Z,15.4
2017-09-15T12:47:31.509Z,15.2
2017-09-15T12:48:36.200Z,15.1
2017-09-15T12:49:39.906Z,15.0
2017-09-15T12:50:43.075Z,14.9
2017-09-15T12:51:45.409Z,14.9
2017-09-15T12:52:48.535Z,15.0
2017-09-15T12:53:51.978Z,15.1
2017-09-15T12:54:57.446Z,15.1
2017-09-15T12:56:01.961Z,15.4
2017-09-15T12:57:04.929Z,15.6
2017-09-15T12:58:07.153Z,15.6
2017-09-15T12:59:10.271Z,15.7
2017-09-15T13:00:14.559Z,15.7
2017-09-15T13:01:17.654Z,15.8
2017-09-15T13:02:20.135Z,15.6
2017-09-15T13:03:23.007Z,15.7
2017-09-15T13:04:26.369Z,15.5
2017-09-15T13:05:30.304Z,15.5
2017-09-15T13:06:32.041Z,15.7
2017-09-15T13:07:33.714Z,15.7
2017-09-15T13:08:36.117Z,15.6
2017-09-15T13:09:40.467Z,15.5
2017-09-15T13:10:43.032Z,15.5
2017-09-15T13:11:46.003Z,15.5
2017-09-15T13:12:49.444Z,15.2
2017-09-15T13:13:53.502Z,14.9
2017-09-15T13:14:56.354Z,14.8
2017-09-15T13:15:59.929Z,14.9
2017-09-15T13:17:01.599Z,14.9
2017-09-15T13:18:03.270Z,15.0
2017-09-15T13:19:05.904Z,15.3
2017-09-15T13:20:12.658Z,15.3
2017-09-15T13:21:14.922Z,15.3
2017-09-15T13:22:18.310Z,15.4
2017-09-15T13:23:20.756Z,15.4
2017-09-15T13:24:24.812Z,15.5
2017-09-15T13:25:27.238Z,15.5
2017-09-15T13:26:29.578Z,15.6
2017-09-15T13:27:33.084Z,15.6
2017-09-15T13:28:35.363Z,15.6
2017-09-15T13:29:39.458Z,15.7
2017-09-15T13:30:43.311Z,15.8
2017-09-15T13:31:45.081Z,15.7
2017-09-15T13:32:49.630Z,15.8
2017-09-15T13:33:53.415Z,15.7
2017-09-15T13:34:55.812Z,15.4
2017-09-15T13:35:57.543Z,15.2
2017-09-15T13:37:00.115Z,14.9
2017-09-15T13:38:03.403Z,14.5
2017-09-15T13:39:05.066Z,14.2
2017-09-15T13:40:06.741Z,13.9
2017-09-15T13:41:10.822Z,13.6
2017-09-15T13:42:14.322Z,13.3
2017-09-15T13:43:16.409Z,12.8
2017-09-15T13:44:19.161Z,12.6
2017-09-15T13:45:20.836Z,12.4
2017-09-15T13:46:23.858Z,12.3
2017-09-15T13:47:26.288Z,12.1
2017-09-15T13:48:29.170Z,12.1
2017-09-15T13:49:31.343Z,11.9
2017-09-15T13:50:34.037Z,11.9
2017-09-15T13:51:38.822Z,11.8
2017-09-15T13:52:40.432Z,11.8
2017-09-15T13:53:42.716Z,11.7
2017-09-15T13:54:45.004Z,11.4
2017-09-15T13:55:48.111Z,11.3
2017-09-15T14:01:56.331Z,10.5
2017-09-15T14:03:00.089Z,10.7
2017-09-15T14:04:03.288Z,10.8
2017-09-15T14:05:07.135Z,10.8
2017-09-15T14:06:09.860Z,11.0
2017-09-15T14:07:13.687Z,10.9
2017-09-15T14:08:17.401Z,10.9
2017-09-15T14:09:19.719Z,10.8
2017-09-15T14:10:22.928Z,10.9
2017-09-15T14:11:25.703Z,10.8
2017-09-15T14:12:28.810Z,10.7
2017-09-15T14:13:31.811Z,10.7
2017-09-15T14:14:34.246Z,10.6
2017-09-15T14:15:37.408Z,10.6
2017-09-15T14:16:39.858Z,10.6
2017-09-15T14:17:42.199Z,10.5
2017-09-15T14:18:45.026Z,10.5
2017-09-15T14:19:47.945Z,10.5
2017-09-15T14:20:51.790Z,10.5
2017-09-15T14:21:54.264Z,10.5
2017-09-15T14:22:56.522Z,10.5
2017-09-15T14:24:00.799Z,10.4
2017-09-15T14:25:02.464Z,10.4
2017-09-15T14:26:05.716Z,10.3
2017-09-15T14:27:09.660Z,10.3
2017-09-15T14:28:13.280Z,10.4
2017-09-15T14:29:16.730Z,10.4
2017-09-15T14:30:20.765Z,10.5
2017-09-15T14:31:23.946Z,10.4